sensor_id;sensor_type;location;lat;lon;timestamp;P1;durP1;ratioP1;P2;durP2;ratioP2
68989;SDS011;56046;47.270;11.368;2024-02-21T00:02:02;1.83;;;0.73;;
68989;SDS011;56046;47.270;11.368;2024-02-21T00:04:27;2.17;;;0.60;;
68989;SDS011;56046;47.270;11.368;2024-02-21T00:06:52;3.77;;;0.80;;
68989;SDS011;56046;47.270;11.368;2024-02-21T00:09:18;1.70;;;0.80;;
68989;SDS011;56046;47.270;11.368;2024-02-21T00:11:44;1.43;;;0.60;;
68989;SDS011;56046;47.270;11.368;2024-02-21T00:14:09;3.35;;;0.63;;
68989;SDS011;56046;47.270;11.368;2024-02-21T00:16:35;2.38;;;0.80;;
68989;SDS011;56046;47.270;11.368;2024-02-21T00:19:00;2.63;;;0.60;;
68989;SDS011;56046;47.270;11.368;2024-02-21T00:21:25;2.37;;;0.70;;
68989;SDS011;56046;47.270;11.368;2024-02-21T00:23:50;2.07;;;0.60;;
68989;SDS011;56046;47.270;11.368;2024-02-21T00:26:16;1.40;;;0.60;;
68989;SDS011;56046;47.270;11.368;2024-02-21T00:28:41;2.27;;;0.90;;
68989;SDS011;56046;47.270;11.368;2024-02-21T00:31:06;1.83;;;0.70;;
68989;SDS011;56046;47.270;11.368;2024-02-21T00:33:31;2.40;;;0.83;;
68989;SDS011;56046;47.270;11.368;2024-02-21T00:35:57;2.30;;;0.70;;
68989;SDS011;56046;47.270;11.368;2024-02-21T00:38:22;1.53;;;0.70;;
68989;SDS011;56046;47.270;11.368;2024-02-21T00:40:47;1.70;;;0.80;;
68989;SDS011;56046;47.270;11.368;2024-02-21T00:43:12;3.53;;;1.10;;
68989;SDS011;56046;47.270;11.368;2024-02-21T00:45:38;2.07;;;0.87;;
68989;SDS011;56046;47.270;11.368;2024-02-21T00:48:03;2.77;;;0.70;;
68989;SDS011;56046;47.270;11.368;2024-02-21T00:50:29;3.53;;;1.00;;
68989;SDS011;56046;47.270;11.368;2024-02-21T00:52:54;3.45;;;1.00;;
68989;SDS011;56046;47.270;11.368;2024-02-21T00:55:19;2.00;;;0.87;;
68989;SDS011;56046;47.270;11.368;2024-02-21T00:57:45;5.63;;;1.07;;
68989;SDS011;56046;47.270;11.368;2024-02-21T01:00:10;3.20;;;1.20;;
68989;SDS011;56046;47.270;11.368;2024-02-21T01:02:35;2.97;;;1.10;;
68989;SDS011;56046;47.270;11.368;2024-02-21T01:05:01;3.47;;;0.77;;
68989;SDS011;56046;47.270;11.368;2024-02-21T01:07:26;1.88;;;0.80;;
68989;SDS011;56046;47.270;11.368;2024-02-21T01:09:52;2.08;;;1.00;;
68989;SDS011;56046;47.270;11.368;2024-02-21T01:12:17;1.80;;;0.80;;
68989;SDS011;56046;47.270;11.368;2024-02-21T01:14:43;3.00;;;0.97;;
68989;SDS011;56046;47.270;11.368;2024-02-21T01:17:09;2.85;;;0.90;;
68989;SDS011;56046;47.270;11.368;2024-02-21T01:19:35;3.60;;;1.10;;
68989;SDS011;56046;47.270;11.368;2024-02-21T01:22:00;2.67;;;0.90;;
68989;SDS011;56046;47.270;11.368;2024-02-21T01:24:25;2.70;;;1.03;;
68989;SDS011;56046;47.270;11.368;2024-02-21T01:26:50;2.47;;;1.00;;
68989;SDS011;56046;47.270;11.368;2024-02-21T01:29:16;3.37;;;1.13;;
68989;SDS011;56046;47.270;11.368;2024-02-21T01:31:41;6.27;;;1.10;;
68989;SDS011;56046;47.270;11.368;2024-02-21T01:34:06;2.40;;;1.00;;
68989;SDS011;56046;47.270;11.368;2024-02-21T01:36:31;3.63;;;0.83;;
68989;SDS011;56046;47.270;11.368;2024-02-21T01:38:57;3.83;;;0.90;;
68989;SDS011;56046;47.270;11.368;2024-02-21T01:41:22;1.67;;;0.83;;
68989;SDS011;56046;47.270;11.368;2024-02-21T01:43:47;2.37;;;0.70;;
68989;SDS011;56046;47.270;11.368;2024-02-21T01:46:12;1.97;;;0.80;;
68989;SDS011;56046;47.270;11.368;2024-02-21T01:48:38;2.43;;;0.80;;
68989;SDS011;56046;47.270;11.368;2024-02-21T01:51:03;2.37;;;0.80;;
68989;SDS011;56046;47.270;11.368;2024-02-21T01:53:36;1.75;;;0.90;;
68989;SDS011;56046;47.270;11.368;2024-02-21T01:56:02;2.72;;;0.90;;
68989;SDS011;56046;47.270;11.368;2024-02-21T01:58:28;2.57;;;1.00;;
68989;SDS011;56046;47.270;11.368;2024-02-21T02:00:53;3.15;;;1.00;;
68989;SDS011;56046;47.270;11.368;2024-02-21T02:03:21;1.92;;;1.00;;
68989;SDS011;56046;47.270;11.368;2024-02-21T02:05:47;3.87;;;0.90;;
68989;SDS011;56046;47.270;11.368;2024-02-21T02:08:13;2.88;;;1.00;;
68989;SDS011;56046;47.270;11.368;2024-02-21T02:10:40;3.35;;;1.35;;
68989;SDS011;56046;47.270;11.368;2024-02-21T02:13:05;4.13;;;1.33;;
68989;SDS011;56046;47.270;11.368;2024-02-21T02:15:49;4.88;;;1.45;;
68989;SDS011;56046;47.270;11.368;2024-02-21T02:18:15;2.23;;;1.07;;
68989;SDS011;56046;47.270;11.368;2024-02-21T02:20:41;3.65;;;1.10;;
68989;SDS011;56046;47.270;11.368;2024-02-21T02:23:28;3.17;;;1.00;;
68989;SDS011;56046;47.270;11.368;2024-02-21T02:25:52;2.45;;;0.90;;
68989;SDS011;56046;47.270;11.368;2024-02-21T02:28:17;2.13;;;1.10;;
68989;SDS011;56046;47.270;11.368;2024-02-21T02:30:42;3.28;;;1.17;;
68989;SDS011;56046;47.270;11.368;2024-02-21T02:33:08;2.83;;;1.30;;
68989;SDS011;56046;47.270;11.368;2024-02-21T02:35:33;3.87;;;0.97;;
68989;SDS011;56046;47.270;11.368;2024-02-21T02:38:00;2.60;;;0.90;;
68989;SDS011;56046;47.270;11.368;2024-02-21T02:40:25;2.33;;;0.93;;
68989;SDS011;56046;47.270;11.368;2024-02-21T02:42:51;2.27;;;1.00;;
68989;SDS011;56046;47.270;11.368;2024-02-21T02:45:16;3.47;;;1.30;;
68989;SDS011;56046;47.270;11.368;2024-02-21T02:47:43;1.73;;;0.75;;
68989;SDS011;56046;47.270;11.368;2024-02-21T02:50:09;4.20;;;1.38;;
68989;SDS011;56046;47.270;11.368;2024-02-21T02:52:34;3.07;;;1.00;;
68989;SDS011;56046;47.270;11.368;2024-02-21T02:54:59;2.70;;;1.10;;
68989;SDS011;56046;47.270;11.368;2024-02-21T02:57:26;3.03;;;1.10;;
68989;SDS011;56046;47.270;11.368;2024-02-21T02:59:52;3.97;;;1.03;;
68989;SDS011;56046;47.270;11.368;2024-02-21T03:02:17;2.60;;;0.80;;
68989;SDS011;56046;47.270;11.368;2024-02-21T03:04:43;2.80;;;0.93;;
68989;SDS011;56046;47.270;11.368;2024-02-21T03:07:08;2.75;;;1.02;;
68989;SDS011;56046;47.270;11.368;2024-02-21T03:09:34;3.87;;;1.20;;
68989;SDS011;56046;47.270;11.368;2024-02-21T03:11:59;4.63;;;1.37;;
68989;SDS011;56046;47.270;11.368;2024-02-21T03:14:30;2.25;;;1.08;;
68989;SDS011;56046;47.270;11.368;2024-02-21T03:16:56;2.73;;;1.20;;
68989;SDS011;56046;47.270;11.368;2024-02-21T03:19:21;3.15;;;1.00;;
68989;SDS011;56046;47.270;11.368;2024-02-21T03:21:47;3.28;;;1.05;;
68989;SDS011;56046;47.270;11.368;2024-02-21T03:24:12;2.20;;;0.70;;
68989;SDS011;56046;47.270;11.368;2024-02-21T03:26:37;2.17;;;1.00;;
68989;SDS011;56046;47.270;11.368;2024-02-21T03:29:03;2.13;;;0.97;;
68989;SDS011;56046;47.270;11.368;2024-02-21T03:31:28;4.40;;;1.03;;
68989;SDS011;56046;47.270;11.368;2024-02-21T03:33:54;5.23;;;1.47;;
68989;SDS011;56046;47.270;11.368;2024-02-21T03:36:19;4.20;;;1.00;;
68989;SDS011;56046;47.270;11.368;2024-02-21T03:38:44;4.73;;;1.43;;
68989;SDS011;56046;47.270;11.368;2024-02-21T03:41:10;2.80;;;1.00;;
68989;SDS011;56046;47.270;11.368;2024-02-21T03:43:37;5.17;;;1.50;;
68989;SDS011;56046;47.270;11.368;2024-02-21T03:46:02;4.68;;;1.10;;
68989;SDS011;56046;47.270;11.368;2024-02-21T03:48:27;3.10;;;1.10;;
68989;SDS011;56046;47.270;11.368;2024-02-21T03:50:52;3.87;;;1.20;;
68989;SDS011;56046;47.270;11.368;2024-02-21T03:53:18;3.23;;;1.20;;
68989;SDS011;56046;47.270;11.368;2024-02-21T03:55:43;3.22;;;1.23;;
68989;SDS011;56046;47.270;11.368;2024-02-21T03:58:09;3.63;;;1.30;;
68989;SDS011;56046;47.270;11.368;2024-02-21T04:00:34;3.17;;;1.30;;
68989;SDS011;56046;47.270;11.368;2024-02-21T04:02:59;2.90;;;1.40;;
68989;SDS011;56046;47.270;11.368;2024-02-21T04:05:24;3.97;;;1.20;;
68989;SDS011;56046;47.270;11.368;2024-02-21T04:07:50;4.30;;;1.50;;
68989;SDS011;56046;47.270;11.368;2024-02-21T04:10:16;2.58;;;1.05;;
68989;SDS011;56046;47.270;11.368;2024-02-21T04:12:41;4.20;;;1.50;;
68989;SDS011;56046;47.270;11.368;2024-02-21T04:15:06;3.20;;;1.40;;
68989;SDS011;56046;47.270;11.368;2024-02-21T04:17:32;3.03;;;1.43;;
68989;SDS011;56046;47.270;11.368;2024-02-21T04:20:01;4.73;;;1.47;;
68989;SDS011;56046;47.270;11.368;2024-02-21T04:22:27;5.90;;;1.50;;
68989;SDS011;56046;47.270;11.368;2024-02-21T04:24:53;4.47;;;1.73;;
68989;SDS011;56046;47.270;11.368;2024-02-21T04:27:18;5.77;;;1.60;;
68989;SDS011;56046;47.270;11.368;2024-02-21T04:29:44;6.23;;;1.80;;
68989;SDS011;56046;47.270;11.368;2024-02-21T04:32:09;4.03;;;1.30;;
68989;SDS011;56046;47.270;11.368;2024-02-21T04:34:34;2.70;;;1.10;;
68989;SDS011;56046;47.270;11.368;2024-02-21T04:37:00;3.50;;;1.70;;
68989;SDS011;56046;47.270;11.368;2024-02-21T04:39:25;2.93;;;1.43;;
68989;SDS011;56046;47.270;11.368;2024-02-21T04:41:50;3.57;;;1.37;;
68989;SDS011;56046;47.270;11.368;2024-02-21T04:44:15;2.80;;;1.30;;
68989;SDS011;56046;47.270;11.368;2024-02-21T04:46:44;3.07;;;1.30;;
68989;SDS011;56046;47.270;11.368;2024-02-21T04:49:09;4.32;;;1.20;;
68989;SDS011;56046;47.270;11.368;2024-02-21T04:51:34;3.53;;;1.30;;
68989;SDS011;56046;47.270;11.368;2024-02-21T04:54:00;3.90;;;1.20;;
68989;SDS011;56046;47.270;11.368;2024-02-21T04:56:25;3.83;;;1.50;;
68989;SDS011;56046;47.270;11.368;2024-02-21T04:58:50;3.37;;;1.50;;
68989;SDS011;56046;47.270;11.368;2024-02-21T05:01:15;3.13;;;1.50;;
68989;SDS011;56046;47.270;11.368;2024-02-21T05:03:40;2.83;;;1.27;;
68989;SDS011;56046;47.270;11.368;2024-02-21T05:06:06;2.37;;;0.83;;
68989;SDS011;56046;47.270;11.368;2024-02-21T05:08:32;3.20;;;1.05;;
68989;SDS011;56046;47.270;11.368;2024-02-21T05:10:58;2.37;;;1.20;;
68989;SDS011;56046;47.270;11.368;2024-02-21T05:13:23;2.50;;;1.23;;
68989;SDS011;56046;47.270;11.368;2024-02-21T05:15:48;3.17;;;1.17;;
68989;SDS011;56046;47.270;11.368;2024-02-21T05:18:14;3.37;;;1.30;;
68989;SDS011;56046;47.270;11.368;2024-02-21T05:20:39;3.07;;;1.23;;
68989;SDS011;56046;47.270;11.368;2024-02-21T05:23:04;6.07;;;1.37;;
68989;SDS011;56046;47.270;11.368;2024-02-21T05:25:29;5.37;;;1.60;;
68989;SDS011;56046;47.270;11.368;2024-02-21T05:27:54;3.43;;;1.47;;
68989;SDS011;56046;47.270;11.368;2024-02-21T05:30:20;2.28;;;1.00;;
68989;SDS011;56046;47.270;11.368;2024-02-21T05:32:46;2.20;;;1.20;;
68989;SDS011;56046;47.270;11.368;2024-02-21T05:35:11;3.87;;;1.70;;
68989;SDS011;56046;47.270;11.368;2024-02-21T05:37:36;4.37;;;1.77;;
68989;SDS011;56046;47.270;11.368;2024-02-21T05:40:02;3.13;;;1.70;;
68989;SDS011;56046;47.270;11.368;2024-02-21T05:42:27;1.75;;;1.00;;
68989;SDS011;56046;47.270;11.368;2024-02-21T05:44:53;3.60;;;1.23;;
68989;SDS011;56046;47.270;11.368;2024-02-21T05:47:18;2.27;;;1.20;;
68989;SDS011;56046;47.270;11.368;2024-02-21T05:49:45;2.83;;;1.20;;
68989;SDS011;56046;47.270;11.368;2024-02-21T05:52:10;2.83;;;1.00;;
68989;SDS011;56046;47.270;11.368;2024-02-21T05:54:39;4.47;;;1.40;;
68989;SDS011;56046;47.270;11.368;2024-02-21T05:57:05;4.18;;;1.88;;
68989;SDS011;56046;47.270;11.368;2024-02-21T05:59:30;4.57;;;1.90;;
68989;SDS011;56046;47.270;11.368;2024-02-21T06:01:58;4.23;;;1.70;;
68989;SDS011;56046;47.270;11.368;2024-02-21T06:04:23;6.43;;;2.13;;
68989;SDS011;56046;47.270;11.368;2024-02-21T06:06:49;4.13;;;1.70;;
68989;SDS011;56046;47.270;11.368;2024-02-21T06:09:14;4.37;;;2.00;;
68989;SDS011;56046;47.270;11.368;2024-02-21T06:11:39;18.00;;;6.03;;
68989;SDS011;56046;47.270;11.368;2024-02-21T06:14:04;8.53;;;3.47;;
68989;SDS011;56046;47.270;11.368;2024-02-21T06:16:30;7.37;;;3.27;;
68989;SDS011;56046;47.270;11.368;2024-02-21T06:18:55;6.33;;;3.00;;
68989;SDS011;56046;47.270;11.368;2024-02-21T06:21:20;6.83;;;2.10;;
68989;SDS011;56046;47.270;11.368;2024-02-21T06:23:45;6.33;;;2.83;;
68989;SDS011;56046;47.270;11.368;2024-02-21T06:26:11;5.57;;;2.60;;
68989;SDS011;56046;47.270;11.368;2024-02-21T06:28:36;8.17;;;5.10;;
68989;SDS011;56046;47.270;11.368;2024-02-21T06:31:02;5.45;;;2.47;;
68989;SDS011;56046;47.270;11.368;2024-02-21T06:33:27;4.60;;;1.60;;
68989;SDS011;56046;47.270;11.368;2024-02-21T06:35:52;3.43;;;1.37;;
68989;SDS011;56046;47.270;11.368;2024-02-21T06:38:21;4.22;;;2.10;;
68989;SDS011;56046;47.270;11.368;2024-02-21T06:40:47;2.87;;;1.17;;
68989;SDS011;56046;47.270;11.368;2024-02-21T06:43:16;3.13;;;1.03;;
68989;SDS011;56046;47.270;11.368;2024-02-21T06:45:41;4.15;;;1.50;;
68989;SDS011;56046;47.270;11.368;2024-02-21T06:48:07;2.85;;;1.10;;
68989;SDS011;56046;47.270;11.368;2024-02-21T06:50:33;3.58;;;1.40;;
68989;SDS011;56046;47.270;11.368;2024-02-21T06:52:58;4.03;;;1.20;;
68989;SDS011;56046;47.270;11.368;2024-02-21T06:55:23;3.73;;;1.83;;
68989;SDS011;56046;47.270;11.368;2024-02-21T06:57:48;3.70;;;1.33;;
68989;SDS011;56046;47.270;11.368;2024-02-21T07:00:14;2.13;;;1.10;;
68989;SDS011;56046;47.270;11.368;2024-02-21T07:02:39;4.45;;;1.60;;
68989;SDS011;56046;47.270;11.368;2024-02-21T07:05:05;5.27;;;1.90;;
68989;SDS011;56046;47.270;11.368;2024-02-21T07:07:30;6.90;;;2.00;;
68989;SDS011;56046;47.270;11.368;2024-02-21T07:09:55;6.03;;;2.10;;
68989;SDS011;56046;47.270;11.368;2024-02-21T07:12:21;4.50;;;1.73;;
68989;SDS011;56046;47.270;11.368;2024-02-21T07:14:46;6.00;;;2.70;;
68989;SDS011;56046;47.270;11.368;2024-02-21T07:17:11;11.33;;;2.50;;
68989;SDS011;56046;47.270;11.368;2024-02-21T07:19:36;9.40;;;2.70;;
68989;SDS011;56046;47.270;11.368;2024-02-21T07:22:02;5.93;;;2.50;;
68989;SDS011;56046;47.270;11.368;2024-02-21T07:24:27;5.22;;;2.30;;
68989;SDS011;56046;47.270;11.368;2024-02-21T07:26:53;7.73;;;2.63;;
68989;SDS011;56046;47.270;11.368;2024-02-21T07:29:18;5.73;;;2.40;;
68989;SDS011;56046;47.270;11.368;2024-02-21T07:31:44;5.27;;;1.93;;
68989;SDS011;56046;47.270;11.368;2024-02-21T07:34:09;6.07;;;1.90;;
68989;SDS011;56046;47.270;11.368;2024-02-21T07:36:35;4.53;;;1.80;;
68989;SDS011;56046;47.270;11.368;2024-02-21T07:39:00;3.73;;;1.70;;
68989;SDS011;56046;47.270;11.368;2024-02-21T07:41:25;2.67;;;1.17;;
68989;SDS011;56046;47.270;11.368;2024-02-21T07:43:51;3.15;;;1.40;;
68989;SDS011;56046;47.270;11.368;2024-02-21T07:46:17;5.63;;;2.60;;
68989;SDS011;56046;47.270;11.368;2024-02-21T07:48:42;5.57;;;2.40;;
68989;SDS011;56046;47.270;11.368;2024-02-21T07:51:07;6.07;;;2.30;;
68989;SDS011;56046;47.270;11.368;2024-02-21T07:53:33;6.43;;;2.17;;
68989;SDS011;56046;47.270;11.368;2024-02-21T07:55:58;8.87;;;1.90;;
68989;SDS011;56046;47.270;11.368;2024-02-21T07:58:23;6.20;;;1.85;;
68989;SDS011;56046;47.270;11.368;2024-02-21T08:00:48;11.67;;;2.03;;
68989;SDS011;56046;47.270;11.368;2024-02-21T08:03:14;5.33;;;1.80;;
68989;SDS011;56046;47.270;11.368;2024-02-21T08:05:40;4.70;;;1.90;;
68989;SDS011;56046;47.270;11.368;2024-02-21T08:08:05;6.90;;;1.97;;
68989;SDS011;56046;47.270;11.368;2024-02-21T08:10:32;6.30;;;2.15;;
68989;SDS011;56046;47.270;11.368;2024-02-21T08:12:57;5.53;;;1.73;;
68989;SDS011;56046;47.270;11.368;2024-02-21T08:15:22;4.93;;;2.50;;
68989;SDS011;56046;47.270;11.368;2024-02-21T08:17:53;5.50;;;2.10;;
68989;SDS011;56046;47.270;11.368;2024-02-21T08:20:18;3.33;;;1.60;;
68989;SDS011;56046;47.270;11.368;2024-02-21T08:22:43;4.63;;;2.22;;
68989;SDS011;56046;47.270;11.368;2024-02-21T08:25:09;6.10;;;2.55;;
68989;SDS011;56046;47.270;11.368;2024-02-21T08:27:34;6.03;;;2.60;;
68989;SDS011;56046;47.270;11.368;2024-02-21T08:29:59;9.77;;;3.17;;
68989;SDS011;56046;47.270;11.368;2024-02-21T08:32:24;6.40;;;3.10;;
68989;SDS011;56046;47.270;11.368;2024-02-21T08:34:50;9.43;;;4.33;;
68989;SDS011;56046;47.270;11.368;2024-02-21T08:37:15;4.67;;;2.00;;
68989;SDS011;56046;47.270;11.368;2024-02-21T08:39:40;4.30;;;1.90;;
68989;SDS011;56046;47.270;11.368;2024-02-21T08:42:06;4.90;;;1.70;;
68989;SDS011;56046;47.270;11.368;2024-02-21T08:44:31;6.40;;;2.30;;
68989;SDS011;56046;47.270;11.368;2024-02-21T08:46:56;4.40;;;1.80;;
68989;SDS011;56046;47.270;11.368;2024-02-21T08:49:22;5.47;;;2.33;;
68989;SDS011;56046;47.270;11.368;2024-02-21T08:51:47;5.37;;;1.93;;
68989;SDS011;56046;47.270;11.368;2024-02-21T08:54:12;5.07;;;2.15;;
68989;SDS011;56046;47.270;11.368;2024-02-21T08:56:37;8.38;;;2.30;;
68989;SDS011;56046;47.270;11.368;2024-02-21T08:59:03;4.70;;;1.85;;
68989;SDS011;56046;47.270;11.368;2024-02-21T09:01:28;5.88;;;2.15;;
68989;SDS011;56046;47.270;11.368;2024-02-21T09:03:54;4.50;;;2.37;;
68989;SDS011;56046;47.270;11.368;2024-02-21T09:06:21;7.45;;;2.15;;
68989;SDS011;56046;47.270;11.368;2024-02-21T09:08:46;5.50;;;1.73;;
68989;SDS011;56046;47.270;11.368;2024-02-21T09:11:12;5.00;;;1.80;;
68989;SDS011;56046;47.270;11.368;2024-02-21T09:13:37;3.87;;;1.50;;
68989;SDS011;56046;47.270;11.368;2024-02-21T09:16:02;3.73;;;1.73;;
68989;SDS011;56046;47.270;11.368;2024-02-21T09:18:28;10.07;;;1.70;;
68989;SDS011;56046;47.270;11.368;2024-02-21T09:20:53;3.80;;;1.40;;
68989;SDS011;56046;47.270;11.368;2024-02-21T09:23:19;7.23;;;1.87;;
68989;SDS011;56046;47.270;11.368;2024-02-21T09:25:44;6.63;;;1.83;;
68989;SDS011;56046;47.270;11.368;2024-02-21T09:28:11;6.05;;;1.50;;
68989;SDS011;56046;47.270;11.368;2024-02-21T09:30:38;4.95;;;1.50;;
68989;SDS011;56046;47.270;11.368;2024-02-21T09:33:03;4.83;;;1.40;;
68989;SDS011;56046;47.270;11.368;2024-02-21T09:35:30;3.70;;;1.55;;
68989;SDS011;56046;47.270;11.368;2024-02-21T09:37:55;4.18;;;1.30;;
68989;SDS011;56046;47.270;11.368;2024-02-21T09:40:20;2.42;;;0.90;;
68989;SDS011;56046;47.270;11.368;2024-02-21T09:42:46;3.38;;;1.13;;
68989;SDS011;56046;47.270;11.368;2024-02-21T09:45:21;2.87;;;0.97;;
68989;SDS011;56046;47.270;11.368;2024-02-21T09:50:30;8.52;;;1.10;;
68989;SDS011;56046;47.270;11.368;2024-02-21T09:52:57;2.70;;;0.85;;
68989;SDS011;56046;47.270;11.368;2024-02-21T09:55:23;3.95;;;1.38;;
68989;SDS011;56046;47.270;11.368;2024-02-21T09:57:52;2.80;;;1.27;;
68989;SDS011;56046;47.270;11.368;2024-02-21T10:00:18;1.98;;;0.98;;
68989;SDS011;56046;47.270;11.368;2024-02-21T10:02:47;3.97;;;1.40;;
68989;SDS011;56046;47.270;11.368;2024-02-21T10:05:12;5.13;;;1.45;;
68989;SDS011;56046;47.270;11.368;2024-02-21T10:07:38;4.03;;;1.30;;
68989;SDS011;56046;47.270;11.368;2024-02-21T10:10:04;5.25;;;1.25;;
68989;SDS011;56046;47.270;11.368;2024-02-21T10:12:30;2.67;;;1.00;;
68989;SDS011;56046;47.270;11.368;2024-02-21T10:15:05;4.60;;;1.60;;
68989;SDS011;56046;47.270;11.368;2024-02-21T10:17:31;2.97;;;1.40;;
68989;SDS011;56046;47.270;11.368;2024-02-21T10:20:06;5.18;;;1.40;;
68989;SDS011;56046;47.270;11.368;2024-02-21T10:22:31;4.70;;;1.43;;
68989;SDS011;56046;47.270;11.368;2024-02-21T10:25:09;4.85;;;1.25;;
68989;SDS011;56046;47.270;11.368;2024-02-21T10:27:36;5.03;;;1.48;;
68989;SDS011;56046;47.270;11.368;2024-02-21T10:30:01;5.47;;;1.60;;
68989;SDS011;56046;47.270;11.368;2024-02-21T10:32:27;4.07;;;1.30;;
68989;SDS011;56046;47.270;11.368;2024-02-21T10:35:00;1.80;;;1.00;;
68989;SDS011;56046;47.270;11.368;2024-02-21T10:37:25;2.33;;;1.05;;
68989;SDS011;56046;47.270;11.368;2024-02-21T10:39:51;3.00;;;1.10;;
68989;SDS011;56046;47.270;11.368;2024-02-21T10:42:16;4.23;;;1.00;;
68989;SDS011;56046;47.270;11.368;2024-02-21T10:44:43;3.10;;;0.80;;
68989;SDS011;56046;47.270;11.368;2024-02-21T10:47:11;2.30;;;1.20;;
68989;SDS011;56046;47.270;11.368;2024-02-21T10:49:41;3.38;;;1.10;;
68989;SDS011;56046;47.270;11.368;2024-02-21T10:57:15;5.75;;;1.00;;
68989;SDS011;56046;47.270;11.368;2024-02-21T10:59:41;4.43;;;1.38;;
68989;SDS011;56046;47.270;11.368;2024-02-21T11:02:07;2.72;;;1.10;;
68989;SDS011;56046;47.270;11.368;2024-02-21T11:04:33;3.63;;;1.47;;
68989;SDS011;56046;47.270;11.368;2024-02-21T11:07:01;3.28;;;0.80;;
68989;SDS011;56046;47.270;11.368;2024-02-21T11:09:31;1.88;;;0.90;;
68989;SDS011;56046;47.270;11.368;2024-02-21T11:11:57;1.47;;;0.93;;
68989;SDS011;56046;47.270;11.368;2024-02-21T11:14:25;1.77;;;1.10;;
68989;SDS011;56046;47.270;11.368;2024-02-21T11:16:51;1.83;;;0.90;;
68989;SDS011;56046;47.270;11.368;2024-02-21T11:19:23;4.07;;;1.23;;
68989;SDS011;56046;47.270;11.368;2024-02-21T11:21:49;2.33;;;1.23;;
68989;SDS011;56046;47.270;11.368;2024-02-21T11:24:25;2.73;;;1.07;;
68989;SDS011;56046;47.270;11.368;2024-02-21T11:26:50;2.03;;;0.85;;
68989;SDS011;56046;47.270;11.368;2024-02-21T11:29:15;2.97;;;1.00;;
68989;SDS011;56046;47.270;11.368;2024-02-21T11:31:47;1.73;;;0.80;;
68989;SDS011;56046;47.270;11.368;2024-02-21T11:34:13;1.93;;;1.23;;
68989;SDS011;56046;47.270;11.368;2024-02-21T11:36:50;2.23;;;1.00;;
68989;SDS011;56046;47.270;11.368;2024-02-21T11:41:45;2.92;;;1.00;;
68989;SDS011;56046;47.270;11.368;2024-02-21T11:44:10;1.87;;;0.77;;
68989;SDS011;56046;47.270;11.368;2024-02-21T11:46:36;6.63;;;1.20;;
68989;SDS011;56046;47.270;11.368;2024-02-21T11:49:01;2.73;;;1.10;;
68989;SDS011;56046;47.270;11.368;2024-02-21T11:51:28;2.50;;;1.15;;
68989;SDS011;56046;47.270;11.368;2024-02-21T11:53:53;4.13;;;0.80;;
68989;SDS011;56046;47.270;11.368;2024-02-21T11:56:19;2.57;;;0.70;;
68989;SDS011;56046;47.270;11.368;2024-02-21T11:58:45;1.90;;;0.97;;
68989;SDS011;56046;47.270;11.368;2024-02-21T12:01:11;1.85;;;1.05;;
68989;SDS011;56046;47.270;11.368;2024-02-21T12:03:36;4.43;;;1.13;;
68989;SDS011;56046;47.270;11.368;2024-02-21T12:06:01;3.83;;;0.90;;
68989;SDS011;56046;47.270;11.368;2024-02-21T12:08:28;2.97;;;1.17;;
68989;SDS011;56046;47.270;11.368;2024-02-21T12:10:54;4.15;;;1.17;;
68989;SDS011;56046;47.270;11.368;2024-02-21T12:13:22;1.70;;;0.90;;
68989;SDS011;56046;47.270;11.368;2024-02-21T12:15:47;2.05;;;1.00;;
68989;SDS011;56046;47.270;11.368;2024-02-21T12:18:14;2.95;;;0.80;;
68989;SDS011;56046;47.270;11.368;2024-02-21T12:20:40;2.23;;;0.90;;
68989;SDS011;56046;47.270;11.368;2024-02-21T12:23:08;3.45;;;1.00;;
68989;SDS011;56046;47.270;11.368;2024-02-21T12:25:33;1.77;;;0.82;;
68989;SDS011;56046;47.270;11.368;2024-02-21T12:27:59;2.37;;;0.90;;
68989;SDS011;56046;47.270;11.368;2024-02-21T12:30:25;2.85;;;0.90;;
68989;SDS011;56046;47.270;11.368;2024-02-21T12:32:51;2.97;;;1.00;;
68989;SDS011;56046;47.270;11.368;2024-02-21T12:35:16;13.57;;;1.40;;
68989;SDS011;56046;47.270;11.368;2024-02-21T12:37:42;5.32;;;1.30;;
68989;SDS011;56046;47.270;11.368;2024-02-21T12:40:08;8.70;;;1.17;;
68989;SDS011;56046;47.270;11.368;2024-02-21T12:42:33;3.05;;;0.90;;
68989;SDS011;56046;47.270;11.368;2024-02-21T12:44:59;1.57;;;0.93;;
68989;SDS011;56046;47.270;11.368;2024-02-21T12:47:24;1.00;;;0.60;;
68989;SDS011;56046;47.270;11.368;2024-02-21T12:49:51;2.65;;;0.98;;
68989;SDS011;56046;47.270;11.368;2024-02-21T12:52:17;2.67;;;1.00;;
68989;SDS011;56046;47.270;11.368;2024-02-21T12:54:42;3.53;;;0.80;;
68989;SDS011;56046;47.270;11.368;2024-02-21T12:57:08;2.50;;;0.90;;
68989;SDS011;56046;47.270;11.368;2024-02-21T12:59:33;1.77;;;0.97;;
68989;SDS011;56046;47.270;11.368;2024-02-21T13:01:58;1.17;;;0.80;;
68989;SDS011;56046;47.270;11.368;2024-02-21T13:04:24;2.78;;;0.95;;
68989;SDS011;56046;47.270;11.368;2024-02-21T13:06:49;1.30;;;0.70;;
68989;SDS011;56046;47.270;11.368;2024-02-21T13:09:14;2.87;;;0.93;;
68989;SDS011;56046;47.270;11.368;2024-02-21T13:11:40;1.33;;;0.68;;
68989;SDS011;56046;47.270;11.368;2024-02-21T13:14:06;3.13;;;1.30;;
68989;SDS011;56046;47.270;11.368;2024-02-21T13:16:31;3.03;;;0.90;;
68989;SDS011;56046;47.270;11.368;2024-02-21T13:18:59;1.83;;;0.77;;
68989;SDS011;56046;47.270;11.368;2024-02-21T13:21:24;1.80;;;0.97;;
68989;SDS011;56046;47.270;11.368;2024-02-21T13:23:49;1.27;;;0.80;;
68989;SDS011;56046;47.270;11.368;2024-02-21T13:26:15;2.47;;;1.00;;
68989;SDS011;56046;47.270;11.368;2024-02-21T13:28:40;1.70;;;0.80;;
68989;SDS011;56046;47.270;11.368;2024-02-21T13:31:05;1.43;;;0.90;;
68989;SDS011;56046;47.270;11.368;2024-02-21T13:33:30;2.33;;;0.77;;
68989;SDS011;56046;47.270;11.368;2024-02-21T13:35:56;1.93;;;0.67;;
68989;SDS011;56046;47.270;11.368;2024-02-21T13:38:21;11.77;;;1.50;;
68989;SDS011;56046;47.270;11.368;2024-02-21T13:40:46;2.53;;;1.00;;
68989;SDS011;56046;47.270;11.368;2024-02-21T13:43:12;3.30;;;1.20;;
68989;SDS011;56046;47.270;11.368;2024-02-21T13:45:37;2.10;;;0.87;;
68989;SDS011;56046;47.270;11.368;2024-02-21T13:48:03;0.90;;;0.80;;
68989;SDS011;56046;47.270;11.368;2024-02-21T13:50:31;3.30;;;1.00;;
68989;SDS011;56046;47.270;11.368;2024-02-21T13:52:56;1.40;;;0.77;;
68989;SDS011;56046;47.270;11.368;2024-02-21T13:55:22;4.23;;;1.20;;
68989;SDS011;56046;47.270;11.368;2024-02-21T13:57:47;35.63;;;5.20;;
68989;SDS011;56046;47.270;11.368;2024-02-21T14:00:12;6.90;;;1.60;;
68989;SDS011;56046;47.270;11.368;2024-02-21T14:02:38;2.72;;;1.00;;
68989;SDS011;56046;47.270;11.368;2024-02-21T14:05:04;1.20;;;0.70;;
68989;SDS011;56046;47.270;11.368;2024-02-21T14:07:31;9.75;;;1.55;;
68989;SDS011;56046;47.270;11.368;2024-02-21T14:09:56;2.80;;;0.80;;
68989;SDS011;56046;47.270;11.368;2024-02-21T14:12:21;4.83;;;1.00;;
68989;SDS011;56046;47.270;11.368;2024-02-21T14:14:46;4.07;;;0.90;;
68989;SDS011;56046;47.270;11.368;2024-02-21T14:17:12;3.37;;;0.80;;
68989;SDS011;56046;47.270;11.368;2024-02-21T14:19:38;3.40;;;0.83;;
68989;SDS011;56046;47.270;11.368;2024-02-21T14:22:03;4.07;;;1.00;;
68989;SDS011;56046;47.270;11.368;2024-02-21T14:24:28;3.00;;;1.00;;
68989;SDS011;56046;47.270;11.368;2024-02-21T14:26:53;4.13;;;1.10;;
68989;SDS011;56046;47.270;11.368;2024-02-21T14:29:19;3.00;;;1.10;;
68989;SDS011;56046;47.270;11.368;2024-02-21T14:31:44;4.40;;;1.00;;
68989;SDS011;56046;47.270;11.368;2024-02-21T14:34:10;2.30;;;1.13;;
68989;SDS011;56046;47.270;11.368;2024-02-21T14:36:35;2.87;;;1.40;;